createdAt,value
2022-11-19T00:01:18.367Z,9.62
2022-11-19T00:03:49.848Z,9.64
2022-11-19T00:06:21.409Z,9.62
2022-11-19T00:08:47.995Z,9.63
2022-11-19T00:11:37.165Z,9.61
2022-11-19T00:14:04.336Z,9.59
2022-11-19T00:16:30.851Z,9.60
2022-11-19T00:18:57.372Z,9.58
2022-11-19T00:21:23.911Z,9.58
2022-11-19T00:23:54.592Z,9.58
2022-11-19T00:26:21.657Z,9.59
2022-11-19T00:28:48.710Z,9.57
2022-11-19T00:31:16.444Z,9.60
2022-11-19T00:33:44.437Z,9.60
2022-11-19T00:36:12.746Z,9.55
2022-11-19T00:38:39.439Z,9.56
2022-11-19T00:41:06.503Z,9.56
2022-11-19T00:43:49.140Z,9.56
2022-11-19T00:46:21.292Z,9.54
2022-11-19T00:48:49.976Z,9.55
2022-11-19T00:51:18.794Z,9.56
2022-11-19T00:53:45.901Z,9.54
2022-11-19T00:56:14.902Z,9.49
2022-11-19T00:58:42.314Z,9.50
2022-11-19T01:01:10.168Z,9.48
2022-11-19T01:03:38.487Z,9.48
2022-11-19T01:06:06.167Z,9.51
2022-11-19T01:08:32.775Z,9.52
2022-11-19T01:11:11.968Z,9.54
2022-11-19T01:13:39.055Z,9.49
2022-11-19T01:16:26.329Z,9.43
2022-11-19T01:18:53.861Z,9.45
2022-11-19T01:21:23.597Z,9.44
2022-11-19T01:23:50.156Z,9.41
2022-11-19T01:26:17.238Z,9.39
2022-11-19T01:28:44.716Z,9.39
2022-11-19T01:31:20.729Z,9.39
2022-11-19T01:33:48.251Z,9.38
2022-11-19T01:36:25.918Z,9.41
2022-11-19T01:38:54.415Z,9.44
2022-11-19T01:41:23.696Z,9.45
2022-11-19T01:43:56.377Z,9.41
2022-11-19T01:46:25.947Z,9.41
2022-11-19T01:48:55.179Z,9.39
2022-11-19T01:51:43.514Z,9.38
2022-11-19T01:54:25.626Z,9.42
2022-11-19T01:56:56.693Z,9.44
2022-11-19T01:59:23.904Z,9.46
2022-11-19T02:01:50.669Z,9.48
2022-11-19T02:04:19.081Z,9.48
2022-11-19T02:06:46.178Z,9.45
2022-11-19T02:09:12.705Z,9.47
2022-11-19T02:12:07.220Z,9.45
2022-11-19T02:14:53.440Z,9.44
2022-11-19T02:17:36.307Z,9.49
2022-11-19T02:20:41.788Z,9.46
2022-11-19T02:23:36.285Z,9.48
2022-11-19T02:26:05.822Z,9.56
2022-11-19T02:28:53.468Z,9.56
2022-11-19T02:31:30.556Z,9.56
2022-11-19T02:34:16.492Z,9.60
2022-11-19T02:37:04.818Z,9.57
2022-11-19T02:39:52.827Z,9.59
2022-11-19T02:42:29.146Z,9.57
2022-11-19T02:45:14.459Z,9.60
2022-11-19T02:47:42.250Z,9.59
2022-11-19T02:50:17.295Z,9.56
2022-11-19T02:52:45.505Z,9.58
2022-11-19T02:55:14.088Z,9.58
2022-11-19T02:57:43.977Z,9.59
2022-11-19T03:00:30.235Z,9.60
2022-11-19T03:03:32.444Z,9.61
2022-11-19T03:06:37.815Z,9.50
2022-11-19T03:09:04.604Z,9.51
2022-11-19T03:11:32.928Z,9.53
2022-11-19T03:14:26.515Z,9.53
2022-11-19T03:17:31.952Z,9.50
2022-11-19T03:20:09.487Z,9.55
2022-11-19T03:23:10.320Z,9.53
2022-11-19T03:25:47.371Z,9.51
2022-11-19T03:28:19.817Z,9.53
2022-11-19T03:30:49.417Z,9.51
2022-11-19T03:33:23.773Z,9.50
2022-11-19T03:35:55.064Z,9.50
2022-11-19T03:38:29.358Z,9.52
2022-11-19T03:40:57.331Z,9.50
2022-11-19T03:43:27.950Z,9.49
2022-11-19T03:45:57.250Z,9.47
2022-11-19T03:48:25.785Z,9.41
2022-11-19T03:50:58.335Z,9.36
2022-11-19T03:53:25.929Z,9.30
2022-11-19T03:55:59.672Z,9.22
2022-11-19T03:58:27.411Z,9.15
2022-11-19T04:00:54.280Z,9.06
2022-11-19T04:03:20.852Z,8.98
2022-11-19T04:05:47.542Z,8.89
2022-11-19T04:08:14.058Z,8.83
2022-11-19T04:10:40.617Z,8.80
2022-11-19T04:13:07.317Z,8.74
2022-11-19T04:15:33.835Z,8.72
2022-11-19T04:18:00.593Z,8.66
2022-11-19T04:20:27.129Z,8.60
2022-11-19T04:22:53.800Z,8.55
2022-11-19T04:25:20.444Z,8.53
2022-11-19T04:27:47.268Z,8.51
2022-11-19T04:30:15.100Z,8.45
2022-11-19T04:32:41.973Z,8.43
2022-11-19T04:35:09.402Z,8.40
2022-11-19T04:37:36.001Z,8.37
2022-11-19T04:40:02.729Z,8.34
2022-11-19T04:42:29.224Z,8.32
2022-11-19T04:44:55.895Z,8.31
2022-11-19T04:47:22.396Z,8.29
2022-11-19T04:49:48.909Z,8.31
2022-11-19T04:52:15.434Z,8.32
2022-11-19T04:54:41.925Z,8.32
2022-11-19T04:57:08.411Z,8.30
2022-11-19T04:59:34.962Z,8.31
2022-11-19T05:02:01.501Z,8.31
2022-11-19T05:04:28.128Z,8.29
2022-11-19T05:06:54.700Z,8.28
2022-11-19T05:09:21.743Z,8.28
2022-11-19T05:11:48.547Z,8.25
2022-11-19T05:14:15.041Z,8.23
2022-11-19T05:16:41.539Z,8.22
2022-11-19T05:19:08.244Z,8.21
2022-11-19T05:21:34.759Z,8.18
2022-11-19T05:24:01.275Z,8.15
2022-11-19T05:26:27.829Z,8.09
2022-11-19T05:28:54.374Z,8.07
2022-11-19T05:31:21.081Z,8.04
2022-11-19T05:33:47.699Z,8.04
2022-11-19T05:36:14.305Z,8.02
2022-11-19T05:38:41.199Z,8.01
2022-11-19T05:41:07.754Z,7.97
2022-11-19T05:43:34.345Z,7.95
2022-11-19T05:46:01.897Z,7.94
2022-11-19T05:48:29.199Z,7.96
2022-11-19T05:50:55.846Z,7.96
2022-11-19T05:53:22.409Z,8.00
2022-11-19T05:55:48.912Z,8.03
2022-11-19T05:58:15.493Z,8.10
2022-11-19T06:00:41.999Z,8.52
2022-11-19T06:03:09.340Z,8.62
2022-11-19T06:05:40.077Z,8.68
2022-11-19T06:08:07.236Z,8.69
2022-11-19T06:10:33.903Z,8.71
2022-11-19T06:13:00.445Z,8.75
2022-11-19T06:15:26.975Z,8.96
2022-11-19T06:17:53.484Z,9.30
2022-11-19T06:20:20.036Z,9.32
2022-11-19T06:22:46.605Z,9.28
2022-11-19T06:25:13.801Z,9.09
2022-11-19T06:27:40.399Z,9.04
2022-11-19T06:30:07.992Z,9.03
2022-11-19T06:32:34.607Z,9.14
2022-11-19T06:35:01.170Z,9.31
2022-11-19T06:37:27.926Z,9.42
2022-11-19T06:39:55.450Z,9.40
2022-11-19T06:42:37.623Z,9.15
2022-11-19T06:45:09.568Z,9.00
2022-11-19T06:47:36.149Z,9.01
2022-11-19T06:50:03.223Z,8.94
2022-11-19T06:52:29.760Z,8.98
2022-11-19T06:54:56.409Z,8.89
2022-11-19T06:57:24.229Z,8.80
2022-11-19T06:59:50.897Z,8.76
2022-11-19T07:02:21.295Z,8.72
2022-11-19T07:04:48.318Z,8.73
2022-11-19T07:07:15.004Z,8.75
2022-11-19T07:09:41.577Z,8.76
2022-11-19T07:12:08.713Z,8.76
2022-11-19T07:14:35.988Z,8.72
2022-11-19T07:17:02.696Z,8.67
2022-11-19T07:19:29.274Z,8.61
2022-11-19T07:21:55.777Z,8.59
2022-11-19T07:24:22.635Z,8.59
2022-11-19T07:26:49.303Z,8.51
2022-11-19T07:29:16.396Z,8.48
2022-11-19T07:31:43.546Z,8.47
2022-11-19T07:34:11.355Z,8.46
2022-11-19T07:36:38.206Z,8.43
2022-11-19T07:39:05.616Z,8.45
2022-11-19T07:41:50.638Z,8.46
2022-11-19T07:44:17.297Z,8.48
2022-11-19T07:46:43.935Z,8.51
2022-11-19T07:49:10.478Z,8.49
2022-11-19T07:51:37.093Z,8.51
2022-11-19T07:54:03.920Z,8.53
2022-11-19T07:56:30.437Z,8.54
2022-11-19T07:59:00.269Z,8.58
2022-11-19T08:01:27.264Z,8.62
2022-11-19T08:03:56.543Z,8.67
2022-11-19T08:06:25.441Z,8.76
2022-11-19T08:08:52.097Z,8.84
2022-11-19T08:11:19.053Z,8.92
2022-11-19T08:13:45.629Z,9.01
2022-11-19T08:16:34.429Z,9.09
2022-11-19T08:19:09.622Z,9.15
2022-11-19T08:21:40.087Z,9.20
2022-11-19T08:24:07.343Z,9.23
2022-11-19T08:26:34.072Z,9.22
2022-11-19T08:29:00.606Z,9.22
2022-11-19T08:31:27.176Z,9.27
2022-11-19T08:33:53.739Z,9.30
2022-11-19T08:36:20.479Z,9.27
2022-11-19T08:38:47.307Z,9.26
2022-11-19T08:41:32.560Z,9.26
2022-11-19T08:44:02.497Z,9.25
2022-11-19T08:46:29.384Z,9.28
2022-11-19T08:48:55.985Z,9.29
2022-11-19T08:51:22.560Z,9.30
2022-11-19T08:53:52.562Z,9.29
2022-11-19T08:56:19.715Z,9.32
2022-11-19T08:58:46.922Z,9.33
2022-11-19T09:01:16.238Z,9.37
2022-11-19T09:03:43.500Z,9.40
2022-11-19T09:06:10.271Z,9.40
2022-11-19T09:08:36.932Z,9.40
2022-11-19T09:11:12.661Z,9.42
2022-11-19T09:13:40.071Z,9.45
2022-11-19T09:16:07.384Z,9.47
2022-11-19T09:18:34.530Z,9.52
2022-11-19T09:21:01.110Z,9.52
2022-11-19T09:23:28.008Z,9.50
2022-11-19T09:26:00.508Z,9.54
2022-11-19T09:28:28.224Z,9.61
2022-11-19T09:30:59.509Z,9.68
2022-11-19T09:33:26.994Z,9.69
2022-11-19T09:35:53.539Z,9.70
2022-11-19T09:38:20.096Z,9.71
2022-11-19T09:40:51.337Z,9.72
2022-11-19T09:43:32.669Z,9.74
2022-11-19T09:46:08.316Z,9.71
2022-11-19T09:48:37.878Z,9.74
2022-11-19T09:51:12.755Z,9.75
2022-11-19T09:53:53.172Z,9.70
2022-11-19T09:56:30.097Z,9.71
2022-11-19T09:58:58.303Z,9.74
2022-11-19T10:01:25.750Z,9.75
2022-11-19T10:03:54.435Z,9.77
2022-11-19T10:06:29.949Z,9.76
2022-11-19T10:09:12.513Z,9.77
2022-11-19T10:11:59.456Z,9.77
2022-11-19T10:14:40.813Z,9.77
2022-11-19T10:17:07.303Z,9.80
2022-11-19T10:19:58.253Z,9.81
2022-11-19T10:22:56.950Z,9.77
2022-11-19T10:25:28.493Z,9.78
2022-11-19T10:28:11.071Z,9.72
2022-11-19T10:30:40.874Z,9.70
2022-11-19T10:33:40.512Z,9.70
2022-11-19T10:36:13.388Z,9.73
2022-11-19T10:39:09.228Z,9.74
2022-11-19T10:41:41.805Z,9.76
2022-11-19T10:44:40.501Z,9.79
2022-11-19T10:47:23.009Z,9.86
2022-11-19T10:49:54.445Z,9.91
2022-11-19T10:52:29.910Z,9.95
2022-11-19T10:55:05.566Z,9.95
2022-11-19T10:57:33.156Z,10.02
2022-11-19T11:00:01.175Z,10.11
2022-11-19T11:02:59.637Z,10.20
2022-11-19T11:05:26.133Z,10.27
2022-11-19T11:07:57.925Z,10.34
2022-11-19T11:10:32.574Z,10.34
2022-11-19T11:13:26.662Z,10.34
2022-11-19T11:15:54.426Z,10.42
2022-11-19T11:18:27.618Z,10.48
2022-11-19T11:20:56.386Z,10.48
2022-11-19T11:23:26.116Z,10.47
2022-11-19T11:26:05.105Z,10.44
2022-11-19T11:28:31.799Z,10.49
2022-11-19T11:31:09.473Z,10.52
2022-11-19T11:33:41.195Z,10.55
2022-11-19T11:36:19.735Z,10.59
2022-11-19T11:38:49.506Z,10.59
2022-11-19T11:44:18.726Z,10.56
2022-11-19T11:46:47.893Z,10.57
2022-11-19T11:49:27.082Z,10.60
2022-11-19T11:52:01.069Z,10.62
2022-11-19T11:54:27.774Z,10.62
2022-11-19T11:56:54.320Z,10.61
2022-11-19T11:59:25.992Z,10.64
2022-11-19T12:02:07.856Z,10.64
2022-11-19T12:04:35.779Z,10.66
2022-11-19T12:07:20.441Z,10.68
2022-11-19T12:10:03.462Z,10.74
2022-11-19T12:12:43.635Z,10.79
2022-11-19T12:15:21.800Z,10.85
2022-11-19T12:18:06.956Z,10.92
2022-11-19T12:20:42.826Z,11.06
2022-11-19T12:23:30.935Z,11.22
2022-11-19T12:26:17.405Z,11.32
2022-11-19T12:29:12.345Z,11.46
2022-11-19T12:32:15.508Z,11.52
2022-11-19T12:34:53.715Z,11.47
2022-11-19T12:37:41.414Z,11.42
2022-11-19T12:40:25.147Z,11.25
2022-11-19T12:43:39.392Z,11.17
2022-11-19T12:46:12.172Z,11.16
2022-11-19T12:48:59.929Z,11.11
2022-11-19T12:51:52.501Z,11.08
2022-11-19T12:54:41.377Z,11.08
2022-11-19T12:57:45.541Z,11.06
2022-11-19T13:00:16.306Z,11.01
2022-11-19T13:03:08.951Z,10.90
2022-11-19T13:06:00.476Z,10.83
2022-11-19T13:08:49.622Z,10.85
2022-11-19T13:11:24.101Z,10.86
2022-11-19T13:14:13.353Z,10.87
2022-11-19T13:16:42.073Z,10.94
2022-11-19T13:19:28.812Z,11.00
2022-11-19T13:22:16.574Z,11.01
2022-11-19T13:24:49.436Z,10.97
2022-11-19T13:27:23.200Z,10.97
2022-11-19T13:30:04.413Z,10.96
2022-11-19T13:32:46.584Z,10.95
2022-11-19T13:35:15.789Z,10.88
2022-11-19T13:37:45.568Z,10.89
2022-11-19T13:40:30.872Z,10.85
2022-11-19T13:43:31.560Z,10.79
2022-11-19T13:46:23.868Z,10.69
2022-11-19T13:48:53.377Z,10.76
2022-11-19T13:51:43.001Z,10.75
2022-11-19T13:54:19.703Z,10.79
2022-11-19T13:56:49.023Z,10.84
2022-11-19T13:59:26.969Z,10.82
2022-11-19T14:02:13.960Z,10.75
2022-11-19T14:05:00.580Z,10.71
2022-11-19T14:08:07.651Z,10.65
2022-11-19T14:10:37.488Z,10.74
2022-11-19T14:13:12.998Z,10.73
2022-11-19T14:16:09.849Z,10.72
2022-11-19T14:19:05.532Z,10.71
2022-11-19T14:21:52.380Z,10.67
2022-11-19T14:24:43.397Z,10.65
2022-11-19T14:27:29.285Z,10.65
2022-11-19T14:30:10.663Z,10.60
2022-11-19T14:32:47.039Z,10.58
2022-11-19T14:35:21.700Z,10.55
2022-11-19T14:37:52.005Z,10.52
2022-11-19T14:40:25.362Z,10.49
2022-11-19T14:43:19.305Z,10.45
2022-11-19T14:46:00.898Z,10.41
2022-11-19T14:48:31.814Z,10.34
2022-11-19T14:51:07.373Z,10.32
2022-11-19T14:53:37.536Z,10.28
2022-11-19T14:56:15.550Z,10.23
2022-11-19T14:59:14.297Z,10.17
2022-11-19T15:02:01.855Z,10.13
2022-11-19T15:05:01.020Z,10.10
2022-11-19T15:07:40.273Z,10.10
2022-11-19T15:10:09.993Z,10.11
2022-11-19T15:12:45.542Z,10.06
2022-11-19T15:15:20.922Z,10.00
2022-11-19T15:18:13.984Z,10.00
2022-11-19T15:21:11.277Z,9.99
2022-11-19T15:23:49.253Z,9.98
2022-11-19T15:26:18.780Z,9.95
2022-11-19T15:28:48.290Z,9.94
2022-11-19T15:31:28.977Z,9.96
2022-11-19T15:35:03.921Z,9.93
2022-11-19T15:37:44.033Z,9.92
2022-11-19T15:40:16.934Z,9.89
2022-11-19T15:42:51.876Z,9.85
2022-11-19T15:45:22.340Z,9.85
2022-11-19T15:48:09.714Z,9.81
2022-11-19T15:50:37.295Z,9.80
2022-11-19T15:53:24.309Z,9.70
2022-11-19T15:56:03.150Z,9.68
2022-11-19T15:58:39.620Z,9.69
2022-11-19T16:01:09.005Z,9.71
2022-11-19T16:03:39.185Z,9.70
2022-11-19T16:06:16.251Z,9.69
2022-11-19T16:08:45.537Z,9.74
2022-11-19T16:11:36.880Z,9.75
2022-11-19T16:14:22.376Z,9.75
2022-11-19T16:17:10.367Z,9.76
2022-11-19T16:19:36.870Z,9.76
2022-11-19T16:22:05.057Z,9.76
2022-11-19T16:24:50.378Z,9.75
2022-11-19T16:27:23.875Z,9.73
2022-11-19T16:29:51.237Z,9.71
2022-11-19T16:32:20.302Z,9.70
2022-11-19T16:34:46.991Z,9.66
2022-11-19T16:37:15.643Z,9.59
2022-11-19T16:39:48.438Z,9.61
2022-11-19T16:42:18.594Z,9.58
2022-11-19T16:44:50.962Z,9.54
2022-11-19T16:47:22.595Z,9.57
2022-11-19T16:49:49.046Z,9.56
2022-11-19T16:52:34.435Z,9.55
2022-11-19T16:55:02.529Z,9.56
2022-11-19T16:57:30.563Z,9.57
2022-11-19T17:00:17.481Z,9.53
2022-11-19T17:02:44.968Z,9.54
2022-11-19T17:05:15.999Z,9.52
2022-11-19T17:07:46.342Z,9.48
2022-11-19T17:10:12.949Z,9.50
2022-11-19T17:12:57.850Z,9.45
2022-11-19T17:15:44.679Z,9.45
2022-11-19T17:18:44.260Z,9.46
2022-11-19T17:21:24.926Z,9.44
2022-11-19T17:23:51.910Z,9.39
2022-11-19T17:26:22.435Z,9.36
2022-11-19T17:28:52.206Z,9.36
2022-11-19T17:31:23.440Z,9.37
2022-11-19T17:34:04.946Z,9.37
2022-11-19T17:36:31.556Z,9.35
2022-11-19T17:38:58.079Z,9.35
2022-11-19T17:41:45.497Z,9.39
2022-11-19T17:44:31.870Z,9.41
2022-11-19T17:46:59.188Z,9.42
2022-11-19T17:49:25.690Z,9.39
2022-11-19T17:51:52.597Z,9.40
2022-11-19T17:54:19.718Z,9.38
2022-11-19T17:56:46.759Z,9.37
2022-11-19T17:59:13.471Z,9.39
2022-11-19T18:01:40.007Z,9.39
2022-11-19T18:04:06.534Z,9.36
2022-11-19T18:06:33.759Z,9.35
2022-11-19T18:09:00.301Z,9.35
2022-11-19T18:11:26.919Z,9.35
2022-11-19T18:13:57.180Z,9.34
2022-11-19T18:16:26.376Z,9.30
2022-11-19T18:18:53.649Z,9.30
2022-11-19T18:21:22.106Z,9.32
2022-11-19T18:23:50.623Z,9.30
2022-11-19T18:26:22.429Z,9.30
2022-11-19T18:28:49.389Z,9.27
2022-11-19T18:31:18.680Z,9.29
2022-11-19T18:33:47.824Z,9.27
2022-11-19T18:36:15.524Z,9.26
2022-11-19T18:38:42.741Z,9.24
2022-11-19T18:41:14.719Z,9.25
2022-11-19T18:44:00.407Z,9.28
2022-11-19T18:46:27.041Z,9.27
2022-11-19T18:48:56.753Z,9.27
2022-11-19T18:51:24.261Z,9.29
2022-11-19T18:53:50.821Z,9.29
2022-11-19T18:56:18.991Z,9.26
2022-11-19T18:58:46.026Z,9.23
2022-11-19T19:01:13.170Z,9.19
2022-11-19T19:03:39.781Z,9.17
2022-11-19T19:06:09.017Z,9.15
2022-11-19T19:08:36.238Z,9.12
2022-11-19T19:11:24.784Z,9.11
2022-11-19T19:13:51.841Z,9.10
2022-11-19T19:16:18.757Z,9.10
2022-11-19T19:18:45.291Z,9.09
2022-11-19T19:21:13.743Z,9.08
2022-11-19T19:23:40.815Z,9.09
2022-11-19T19:26:08.320Z,9.10
2022-11-19T19:28:36.272Z,9.07
2022-11-19T19:31:04.247Z,9.07
2022-11-19T19:33:31.144Z,9.06
2022-11-19T19:35:57.759Z,9.12
2022-11-19T19:38:24.669Z,9.11
2022-11-19T19:40:51.204Z,9.15
2022-11-19T19:43:17.736Z,9.18
2022-11-19T19:45:44.332Z,9.21
2022-11-19T19:48:11.021Z,9.21
2022-11-19T19:50:37.615Z,9.21
2022-11-19T19:53:04.847Z,9.20
2022-11-19T19:55:31.434Z,9.24
2022-11-19T19:57:58.031Z,9.28
2022-11-19T20:00:24.683Z,9.30
2022-11-19T20:02:51.260Z,9.28
2022-11-19T20:05:17.780Z,9.26
2022-11-19T20:07:44.356Z,9.25
2022-11-19T20:10:10.965Z,9.22
2022-11-19T20:12:55.774Z,9.19
2022-11-19T20:15:22.357Z,9.19
2022-11-19T20:17:48.895Z,9.21
2022-11-19T20:20:15.467Z,9.21
2022-11-19T20:22:42.004Z,9.19
2022-11-19T20:25:08.602Z,9.14
2022-11-19T20:27:35.202Z,9.13
2022-11-19T20:30:01.723Z,9.15
2022-11-19T20:32:28.406Z,9.16
2022-11-19T20:34:56.485Z,9.13
2022-11-19T20:37:23.054Z,9.09
2022-11-19T20:39:49.610Z,9.10
2022-11-19T20:42:34.643Z,9.05
2022-11-19T20:45:01.378Z,9.02
2022-11-19T20:47:27.934Z,9.03
2022-11-19T20:49:54.440Z,9.03
2022-11-19T20:52:23.011Z,9.04
2022-11-19T20:54:51.196Z,9.04
2022-11-19T20:57:18.848Z,9.04
2022-11-19T20:59:45.663Z,9.02
2022-11-19T21:02:12.447Z,8.98
2022-11-19T21:04:39.096Z,8.97
2022-11-19T21:07:06.079Z,8.96
2022-11-19T21:09:33.529Z,8.95
2022-11-19T21:12:00.132Z,8.92
2022-11-19T21:14:26.798Z,8.94
2022-11-19T21:16:53.851Z,8.94
2022-11-19T21:19:20.824Z,8.91
2022-11-19T21:21:47.682Z,8.91
2022-11-19T21:24:14.684Z,8.90
2022-11-19T21:26:41.572Z,8.87
2022-11-19T21:29:08.239Z,8.87
2022-11-19T21:31:39.864Z,8.89
2022-11-19T21:34:09.006Z,8.90
2022-11-19T21:36:36.642Z,8.90
2022-11-19T21:39:04.498Z,8.89
2022-11-19T21:41:31.151Z,8.86
2022-11-19T21:43:57.732Z,8.83
2022-11-19T21:46:24.305Z,8.81
2022-11-19T21:48:50.917Z,8.83
2022-11-19T21:51:22.979Z,8.84
2022-11-19T21:53:54.088Z,8.87
2022-11-19T21:56:20.634Z,8.84
2022-11-19T21:58:47.138Z,8.85
2022-11-19T22:01:13.919Z,8.84
2022-11-19T22:03:40.568Z,8.85
2022-11-19T22:06:09.594Z,8.83
2022-11-19T22:08:38.572Z,8.84
2022-11-19T22:11:25.928Z,8.86
2022-11-19T22:13:53.249Z,8.85
2022-11-19T22:16:20.323Z,8.84
2022-11-19T22:18:47.118Z,8.86
2022-11-19T22:21:13.939Z,8.90
2022-11-19T22:23:41.024Z,8.91
2022-11-19T22:26:09.587Z,8.91
2022-11-19T22:28:36.736Z,8.88
2022-11-19T22:31:03.544Z,8.91
2022-11-19T22:33:40.340Z,8.89
2022-11-19T22:36:10.341Z,8.91
2022-11-19T22:38:38.690Z,8.90
2022-11-19T22:41:08.464Z,8.86
2022-11-19T22:43:35.959Z,8.88
2022-11-19T22:46:02.465Z,8.86
2022-11-19T22:48:30.508Z,8.88
2022-11-19T22:50:57.465Z,8.88
2022-11-19T22:53:24.512Z,8.88
2022-11-19T22:55:51.572Z,8.90
2022-11-19T22:58:18.095Z,8.92
2022-11-19T23:00:49.633Z,8.95
2022-11-19T23:03:16.623Z,8.97
2022-11-19T23:05:49.875Z,8.97
2022-11-19T23:08:16.482Z,8.99
2022-11-19T23:10:43.288Z,8.98
2022-11-19T23:13:30.736Z,8.97
2022-11-19T23:16:16.760Z,8.99
2022-11-19T23:18:53.147Z,8.98
2022-11-19T23:21:22.486Z,9.00
2022-11-19T23:23:49.807Z,8.99
2022-11-19T23:26:19.070Z,8.98
2022-11-19T23:28:45.947Z,8.96
2022-11-19T23:31:18.573Z,8.95
2022-11-19T23:33:45.980Z,8.94
2022-11-19T23:36:18.108Z,8.92
2022-11-19T23:38:45.313Z,8.91
2022-11-19T23:41:13.759Z,8.89
2022-11-19T23:43:40.287Z,8.88
2022-11-19T23:46:08.124Z,8.91
2022-11-19T23:48:35.764Z,8.89
2022-11-19T23:51:07.297Z,8.90
2022-11-19T23:53:34.025Z,8.90
2022-11-19T23:56:01.375Z,8.89
2022-11-19T23:58:28.453Z,8.88
